createdAt,value
2023-02-24T00:01:18.555Z,25.80
2023-02-24T00:08:01.174Z,23.73
2023-02-24T00:14:45.245Z,23.23
2023-02-24T00:21:28.431Z,27.35
2023-02-24T00:28:14.411Z,30.95
2023-02-24T00:34:57.987Z,36.22
2023-02-24T00:41:42.753Z,32.42
2023-02-24T00:48:29.726Z,37.42
2023-02-24T00:55:15.069Z,34.30
2023-02-24T01:01:57.489Z,34.17
2023-02-24T01:08:42.745Z,36.20
2023-02-24T01:15:25.639Z,38.92
2023-02-24T01:22:09.972Z,35.97
2023-02-24T01:28:53.470Z,36.30
2023-02-24T01:35:35.952Z,32.60
2023-02-24T01:42:21.139Z,28.92
2023-02-24T01:49:08.265Z,27.73
2023-02-24T01:55:51.246Z,29.50
2023-02-24T02:02:33.904Z,28.75
2023-02-24T02:09:17.216Z,31.42
2023-02-24T02:16:09.338Z,32.20
2023-02-24T02:23:13.956Z,31.55
2023-02-24T02:30:26.247Z,29.15
2023-02-24T02:37:14.713Z,32.22
2023-02-24T02:44:09.251Z,31.00
2023-02-24T02:51:04.126Z,34.78
2023-02-24T02:57:48.731Z,36.50
2023-02-24T03:04:31.310Z,35.45
2023-02-24T03:11:18.654Z,35.50
2023-02-24T03:18:12.001Z,34.53
2023-02-24T03:24:55.357Z,33.20
2023-02-24T03:32:13.168Z,32.70
2023-02-24T03:38:58.171Z,35.20
2023-02-24T03:45:42.038Z,35.55
2023-02-24T03:52:52.281Z,33.10
2023-02-24T04:00:22.452Z,35.30
2023-02-24T04:07:19.444Z,32.70
2023-02-24T04:14:10.885Z,40.42
2023-02-24T04:20:59.675Z,39.65
2023-02-24T04:27:44.201Z,43.20
2023-02-24T04:34:32.495Z,41.05
2023-02-24T04:41:23.109Z,40.88
2023-02-24T04:48:12.365Z,44.40
2023-02-24T04:54:54.648Z,50.08
2023-02-24T05:01:42.064Z,47.80
2023-02-24T05:08:26.270Z,56.38
2023-02-24T05:15:09.119Z,54.60
2023-02-24T05:21:51.792Z,50.65
2023-02-24T05:28:35.237Z,50.75
2023-02-24T05:35:17.745Z,48.72
2023-02-24T05:42:06.009Z,61.33
2023-02-24T05:48:51.177Z,51.47
2023-02-24T05:55:36.503Z,53.75
2023-02-24T06:02:27.677Z,48.53
2023-02-24T06:09:14.246Z,53.72
2023-02-24T06:15:57.136Z,57.72
2023-02-24T06:22:42.443Z,58.03
2023-02-24T06:29:29.379Z,59.67
2023-02-24T06:36:14.303Z,59.90
2023-02-24T06:42:56.999Z,64.88
2023-02-24T06:49:39.374Z,78.40
2023-02-24T06:56:21.689Z,65.80
2023-02-24T07:03:17.112Z,67.78
2023-02-24T07:09:59.963Z,72.30
2023-02-24T07:16:45.657Z,72.45
2023-02-24T07:23:29.250Z,74.72
2023-02-24T07:30:12.366Z,71.32
2023-02-24T07:36:56.094Z,69.35
2023-02-24T07:43:39.993Z,66.68
2023-02-24T07:50:22.356Z,67.65
2023-02-24T07:57:05.889Z,74.68
2023-02-24T08:03:55.910Z,69.13
2023-02-24T08:10:40.803Z,62.88
2023-02-24T08:17:26.410Z,62.85
2023-02-24T08:24:20.629Z,65.15
2023-02-24T08:31:04.549Z,60.25
2023-02-24T08:37:52.508Z,66.63
2023-02-24T08:44:37.103Z,67.25
2023-02-24T08:51:31.324Z,58.85
2023-02-24T08:58:18.200Z,58.40
2023-02-24T09:05:05.172Z,54.53
2023-02-24T09:11:59.324Z,59.30
2023-02-24T09:18:42.717Z,53.42
2023-02-24T09:25:40.790Z,52.83
2023-02-24T09:32:23.567Z,51.22
2023-02-24T09:39:05.958Z,56.58
2023-02-24T09:45:58.167Z,51.25
2023-02-24T09:52:41.296Z,50.63
2023-02-24T10:00:01.199Z,52.60
2023-02-24T10:06:48.170Z,50.70
2023-02-24T10:13:32.618Z,39.90
2023-02-24T10:20:31.052Z,34.58
2023-02-24T10:27:23.940Z,26.67
2023-02-24T10:34:11.896Z,33.80
2023-02-24T10:40:56.690Z,31.08
2023-02-24T10:47:44.392Z,40.53
2023-02-24T10:54:44.663Z,45.05
2023-02-24T11:01:43.580Z,59.97
2023-02-24T11:08:36.621Z,62.60
2023-02-24T11:15:44.903Z,60.35
2023-02-24T11:22:33.956Z,49.50
2023-02-24T11:29:45.037Z,53.95
2023-02-24T11:36:40.855Z,51.95
2023-02-24T11:43:26.388Z,48.72
2023-02-24T11:50:32.439Z,55.28
2023-02-24T11:57:43.656Z,53.58
2023-02-24T12:04:32.049Z,52.00
2023-02-24T12:11:32.883Z,53.17
2023-02-24T12:18:36.009Z,57.63
2023-02-24T12:25:25.200Z,60.70
2023-02-24T12:32:11.283Z,49.25
2023-02-24T12:39:12.339Z,47.78
2023-02-24T12:46:09.147Z,43.42
2023-02-24T12:53:06.404Z,44.47
2023-02-24T12:59:50.712Z,46.58
2023-02-24T13:07:07.526Z,40.83
2023-02-24T13:14:03.381Z,44.70
2023-02-24T13:20:45.976Z,46.92
2023-02-24T13:27:30.466Z,45.83
2023-02-24T13:34:41.880Z,52.03
2023-02-24T13:41:27.140Z,45.25
2023-02-24T13:48:28.194Z,47.15
2023-02-24T13:55:48.102Z,44.65
2023-02-24T14:02:35.823Z,44.45
2023-02-24T14:09:24.641Z,45.40
2023-02-24T14:16:13.057Z,43.85
2023-02-24T14:22:59.073Z,33.95
2023-02-24T14:29:44.416Z,37.53
2023-02-24T14:36:30.885Z,33.03
2023-02-24T14:43:15.019Z,41.75
2023-02-24T14:49:59.906Z,31.77
2023-02-24T14:56:42.365Z,31.58
2023-02-24T15:03:36.384Z,34.42
2023-02-24T15:10:25.155Z,33.55
2023-02-24T15:17:16.238Z,33.22
2023-02-24T15:24:01.348Z,24.70
2023-02-24T15:31:18.852Z,26.23
2023-02-24T15:38:02.864Z,23.17
2023-02-24T15:44:59.602Z,26.58
2023-02-24T15:51:47.252Z,20.08
2023-02-24T15:58:30.555Z,27.73
2023-02-24T16:05:14.421Z,23.13
2023-02-24T16:11:56.862Z,28.02
2023-02-24T16:18:39.501Z,25.50
2023-02-24T16:25:22.135Z,23.75
2023-02-24T16:32:04.841Z,21.63
2023-02-24T16:38:52.179Z,24.67
2023-02-24T16:45:36.247Z,22.98
2023-02-24T16:52:20.059Z,22.08
2023-02-24T16:59:02.343Z,25.02
2023-02-24T17:05:45.035Z,23.52
2023-02-24T17:12:27.409Z,22.30
2023-02-24T17:19:09.829Z,22.92
2023-02-24T17:25:54.802Z,21.73
2023-02-24T17:32:37.173Z,21.45
2023-02-24T17:39:19.618Z,26.80
2023-02-24T17:46:04.449Z,17.00
2023-02-24T17:52:48.209Z,19.00
2023-02-24T17:59:30.539Z,16.20
2023-02-24T18:06:13.119Z,13.63
2023-02-24T18:12:55.416Z,12.98
2023-02-24T18:19:37.767Z,10.60
2023-02-24T18:26:23.487Z,14.95
2023-02-24T18:33:06.477Z,10.43
2023-02-24T18:39:48.950Z,10.77
2023-02-24T18:46:31.346Z,17.27
2023-02-24T18:53:13.656Z,13.40
2023-02-24T18:59:55.941Z,17.08
2023-02-24T19:06:38.322Z,20.27
2023-02-24T19:13:20.688Z,19.40
2023-02-24T19:20:03.144Z,20.90
2023-02-24T19:26:47.395Z,20.52
2023-02-24T19:33:29.675Z,20.48
2023-02-24T19:40:12.484Z,21.15
2023-02-24T19:46:54.823Z,24.13
2023-02-24T19:53:37.824Z,20.20
2023-02-24T20:00:20.852Z,24.95
2023-02-24T20:07:03.212Z,23.35
2023-02-24T20:13:46.628Z,25.73
2023-02-24T20:20:30.326Z,23.55
2023-02-24T20:27:12.799Z,23.25
2023-02-24T20:33:56.335Z,23.77
2023-02-24T20:40:39.330Z,25.00
2023-02-24T20:47:21.669Z,23.88
2023-02-24T20:54:06.182Z,26.65
2023-02-24T21:00:48.573Z,25.45
2023-02-24T21:07:31.784Z,26.85
2023-02-24T21:14:15.840Z,8.60
2023-02-24T21:20:58.286Z,9.75
2023-02-24T21:27:40.743Z,4.28
2023-02-24T21:34:23.099Z,3.90
2023-02-24T21:41:13.411Z,3.58
2023-02-24T21:47:55.831Z,3.50
2023-02-24T21:54:38.152Z,4.65
2023-02-24T22:01:24.202Z,7.55
2023-02-24T22:08:06.711Z,4.97
2023-02-24T22:14:49.066Z,9.25
2023-02-24T22:21:32.510Z,14.88
2023-02-24T22:28:14.803Z,7.63
2023-02-24T22:34:57.125Z,9.95
2023-02-24T22:41:39.575Z,6.43
2023-02-24T22:48:21.905Z,7.35
2023-02-24T22:55:04.344Z,6.97
2023-02-24T23:01:46.620Z,10.27
2023-02-24T23:08:31.017Z,11.75
2023-02-24T23:15:13.651Z,8.15
2023-02-24T23:21:57.020Z,4.75
2023-02-24T23:28:39.966Z,6.05
2023-02-24T23:35:22.309Z,6.28
2023-02-24T23:42:04.648Z,9.10
2023-02-24T23:48:51.575Z,9.13
2023-02-24T23:55:35.471Z,11.57
